Time;durP1;ratioP1;P1;durP2;ratioP2;P2;SDS_P1;SDS_P2;PMS_P1;PMS_P2;Temp;Humidity;BMP_temperature;BMP_pressure;BME280_temperature;BME280_humidity;BME280_pressure;Samples;Min_cycle;Max_cycle;Signal;HPM_P1;HPM_P2
2022/08/18 00:01:14;;;;;;;2.15;1.92;;;18.80;99.90;;;;;;1917937;73;21089;-75
2022/08/18 00:04:06;;;;;;;2.50;1.90;;;18.70;99.90;;;;;;1917693;75;21069;-75
2022/08/18 00:06:59;;;;;;;2.87;2.00;;;18.60;99.90;;;;;;1907050;74;21083;-75
2022/08/18 00:09:50;;;;;;;2.70;1.80;;;18.60;99.90;;;;;;1916130;74;21129;-75
2022/08/18 00:12:43;;;;;;;1.82;1.45;;;18.60;99.90;;;;;;1913076;74;21100;-75
2022/08/18 00:15:34;;;;;;;3.58;1.42;;;18.60;99.90;;;;;;1914301;74;21059;-75
2022/08/18 00:18:26;;;;;;;2.33;1.67;;;18.60;99.90;;;;;;1924099;73;21488;-75
2022/08/18 00:21:18;;;;;;;2.40;1.47;;;18.60;99.90;;;;;;1935982;73;21161;-76
2022/08/18 00:24:09;;;;;;;1.70;1.25;;;18.60;99.90;;;;;;1923761;73;21150;-75
2022/08/18 00:27:00;;;;;;;1.60;1.50;;;18.70;99.90;;;;;;1921578;73;21094;-77
2022/08/18 00:29:52;;;;;;;1.25;1.15;;;18.50;99.90;;;;;;1926731;73;21056;-77
2022/08/18 00:32:46;;;;;;;1.70;1.30;;;18.50;99.90;;;;;;1909288;74;21062;-76
2022/08/18 00:35:39;;;;;;;1.50;1.40;;;18.50;99.90;;;;;;1928879;73;21055;-76
2022/08/18 00:38:30;;;;;;;2.47;1.17;;;18.50;99.90;;;;;;1909902;74;21603;-76
2022/08/18 00:41:23;;;;;;;2.08;1.55;;;18.60;99.90;;;;;;1931790;73;21143;-76
2022/08/18 00:44:18;;;;;;;2.02;1.30;;;18.50;99.90;;;;;;1924512;73;21079;-76
2022/08/18 00:47:09;;;;;;;2.70;1.30;;;18.50;99.90;;;;;;1908267;74;21047;-77
2022/08/18 00:50:01;;;;;;;1.70;1.22;;;18.50;99.90;;;;;;1908940;74;21056;-76
2022/08/18 00:52:55;;;;;;;2.10;1.10;;;18.40;99.90;;;;;;1915557;74;21566;-76
2022/08/18 00:55:48;;;;;;;3.47;0.98;;;18.40;99.90;;;;;;1918155;73;21052;-76
2022/08/18 00:58:44;;;;;;;1.65;1.20;;;18.50;99.90;;;;;;1926597;74;21074;-76
2022/08/18 01:01:36;;;;;;;1.37;1.10;;;18.30;99.90;;;;;;1936526;73;21109;-76
2022/08/18 01:04:32;;;;;;;2.05;0.90;;;18.40;99.90;;;;;;1906635;74;21487;-76
2022/08/18 01:07:28;;;;;;;1.60;0.95;;;18.40;99.90;;;;;;1921392;74;21180;-76
2022/08/18 01:10:22;;;;;;;1.45;0.90;;;18.40;99.90;;;;;;1916979;75;21102;-77
2022/08/18 01:13:14;;;;;;;1.77;1.20;;;18.30;99.90;;;;;;1877683;75;21142;-76
2022/08/18 01:21:57;;;;;;;1.60;1.20;;;18.20;99.90;;;;;;1917418;73;21058;-76
2022/08/18 01:28:01;;;;;;;1.98;1.10;;;18.30;99.90;;;;;;1917646;73;21058;-78
2022/08/18 01:30:56;;;;;;;1.37;1.10;;;18.20;99.90;;;;;;1917561;73;21090;-76
2022/08/18 01:33:46;;;;;;;1.40;1.20;;;18.10;99.90;;;;;;1935702;73;21163;-76
2022/08/18 01:39:17;;;;;;;2.87;1.90;;;18.10;99.90;;;;;;1913604;72;22278;-75
2022/08/18 01:42:10;;;;;;;1.62;1.32;;;18.10;99.90;;;;;;1904127;74;21129;-76
2022/08/18 01:45:02;;;;;;;3.10;1.45;;;18.10;99.90;;;;;;1919833;74;21143;-76
2022/08/18 01:47:54;;;;;;;2.08;1.40;;;18.10;99.90;;;;;;1917036;73;21124;-76
2022/08/18 01:50:48;;;;;;;1.50;1.20;;;18.10;99.90;;;;;;1884922;75;21121;-76
2022/08/18 01:53:38;;;;;;;2.72;1.37;;;18.10;99.90;;;;;;1912905;74;21063;-78
2022/08/18 01:56:30;;;;;;;1.70;1.32;;;18.10;99.90;;;;;;1905340;74;21062;-78
2022/08/18 02:02:05;;;;;;;2.35;1.37;;;18.00;99.90;;;;;;1947499;72;22185;-77
2022/08/18 02:05:02;;;;;;;1.90;1.70;;;18.00;99.90;;;;;;1895480;75;21161;-77
2022/08/18 02:07:53;;;;;;;1.90;1.55;;;18.00;99.90;;;;;;1898767;75;21183;-77
2022/08/18 02:10:44;;;;;;;2.30;1.60;;;18.00;99.90;;;;;;1894245;75;21067;-77
2022/08/18 02:13:36;;;;;;;2.25;1.50;;;18.00;99.90;;;;;;1897158;75;21152;-77
2022/08/18 02:16:27;;;;;;;2.10;1.70;;;18.00;99.90;;;;;;1888540;75;21113;-76
2022/08/18 02:19:18;;;;;;;2.17;1.50;;;18.00;99.90;;;;;;1893956;75;21084;-76
2022/08/18 02:22:12;;;;;;;2.33;1.47;;;17.90;99.90;;;;;;1894348;74;21600;-76
2022/08/18 02:25:04;;;;;;;3.17;1.40;;;17.80;99.90;;;;;;1894626;75;21086;-76
2022/08/18 02:27:57;;;;;;;3.75;1.40;;;17.80;99.90;;;;;;1887396;75;21211;-76
2022/08/18 02:30:49;;;;;;;1.82;1.22;;;17.80;99.90;;;;;;1906543;75;21092;-76
2022/08/18 02:33:40;;;;;;;2.67;1.37;;;17.80;99.90;;;;;;1901199;75;21574;-76
2022/08/18 02:36:33;;;;;;;5.55;1.40;;;17.80;99.90;;;;;;1909474;75;21149;-76
2022/08/18 02:39:24;;;;;;;3.15;1.47;;;17.70;99.90;;;;;;1899139;75;21139;-75
2022/08/18 02:42:15;;;;;;;3.92;1.57;;;17.70;99.90;;;;;;1890892;75;21191;-75
2022/08/18 02:45:08;;;;;;;1.90;1.70;;;17.70;99.90;;;;;;1887603;75;21176;-76
2022/08/18 02:48:00;;;;;;;3.37;1.20;;;17.80;99.90;;;;;;1904466;75;21043;-77
2022/08/18 02:50:51;;;;;;;4.50;1.50;;;17.80;99.90;;;;;;1889978;75;21063;-78
2022/08/18 02:53:45;;;;;;;3.15;1.50;;;17.80;99.90;;;;;;1909500;75;21043;-78
2022/08/18 02:56:37;;;;;;;2.37;1.60;;;17.80;99.90;;;;;;1898540;75;21086;-77
2022/08/18 02:59:30;;;;;;;1.75;1.40;;;17.80;99.90;;;;;;1903381;75;21169;-78
2022/08/18 03:02:24;;;;;;;4.72;1.60;;;17.90;99.90;;;;;;1906331;74;21117;-77
2022/08/18 03:05:16;;;;;;;1.42;1.32;;;17.90;99.90;;;;;;1874263;76;21155;-76
2022/08/18 03:08:10;;;;;;;1.30;1.20;;;17.90;99.90;;;;;;1912734;74;21178;-77
2022/08/18 03:11:00;;;;;;;1.85;1.30;;;17.90;99.90;;;;;;1900672;74;21102;-77
2022/08/18 03:13:51;;;;;;;3.45;1.10;;;17.80;99.90;;;;;;1908072;74;21066;-80
2022/08/18 03:16:44;;;;;;;2.30;1.32;;;17.80;99.90;;;;;;1906210;74;21220;-80
2022/08/18 03:19:37;;;;;;;1.82;1.40;;;17.70;99.90;;;;;;1863776;76;21114;-80
2022/08/18 03:22:29;;;;;;;2.22;1.80;;;17.70;99.90;;;;;;1912050;74;21099;-80
2022/08/18 03:25:22;;;;;;;2.22;1.55;;;17.60;99.90;;;;;;1848728;77;21175;-80
2022/08/18 03:28:13;;;;;;;3.85;2.08;;;17.60;99.90;;;;;;1921709;74;21116;-81
2022/08/18 03:31:04;;;;;;;2.47;2.25;;;17.50;99.90;;;;;;1911021;74;21086;-80
2022/08/18 03:33:56;;;;;;;2.00;1.80;;;17.50;99.90;;;;;;1908608;74;21120;-80
2022/08/18 03:36:51;;;;;;;3.70;1.75;;;17.50;99.90;;;;;;1853707;77;21176;-81
2022/08/18 03:39:42;;;;;;;2.90;1.90;;;17.50;99.90;;;;;;1905020;74;21530;-80
2022/08/18 03:42:33;;;;;;;2.52;1.87;;;17.50;99.90;;;;;;1912004;74;21568;-79
2022/08/18 03:45:27;;;;;;;6.08;1.87;;;17.50;99.90;;;;;;1921898;74;21109;-78
2022/08/18 03:48:18;;;;;;;2.08;1.47;;;17.50;99.90;;;;;;1880210;76;21097;-78
2022/08/18 03:51:11;;;;;;;1.80;1.30;;;17.40;99.90;;;;;;1871262;76;21054;-78
2022/08/18 03:54:04;;;;;;;1.10;0.93;;;17.30;99.90;;;;;;1900688;74;21047;-78
2022/08/18 03:56:55;;;;;;;1.20;1.05;;;17.30;99.90;;;;;;1903733;74;21094;-78
2022/08/18 03:59:47;;;;;;;1.87;1.10;;;17.20;99.90;;;;;;1902968;74;21095;-79
2022/08/18 04:05:17;;;;;;;1.50;1.40;;;17.10;99.90;;;;;;1944872;72;22135;-80
2022/08/18 04:08:08;;;;;;;2.35;1.22;;;17.10;99.90;;;;;;1890583;75;21056;-81
2022/08/18 04:11:00;;;;;;;4.12;1.12;;;17.20;99.90;;;;;;1872942;75;21156;-80
2022/08/18 04:13:51;;;;;;;1.65;1.20;;;17.20;99.90;;;;;;1853153;77;21070;-79
2022/08/18 04:16:42;;;;;;;0.98;0.90;;;17.20;99.90;;;;;;1878667;75;21135;-79
2022/08/18 04:19:34;;;;;;;2.27;1.00;;;17.10;99.90;;;;;;1881661;75;21084;-81
2022/08/18 04:22:26;;;;;;;2.55;1.40;;;17.10;99.90;;;;;;1886369;75;21052;-76
2022/08/18 04:25:17;;;;;;;1.87;1.37;;;17.00;99.90;;;;;;1901895;75;21040;-76
2022/08/18 04:30:58;;;;;;;1.72;1.20;;;17.10;99.90;;;;;;1944239;72;22263;-75
2022/08/18 04:33:55;;;;;;;3.90;1.45;;;17.10;99.90;;;;;;1906144;74;21136;-76
2022/08/18 04:36:47;;;;;;;3.50;1.70;;;17.10;99.90;;;;;;1915705;73;21043;-75
2022/08/18 04:39:38;;;;;;;4.40;2.10;;;17.10;99.90;;;;;;1909515;74;21092;-76
2022/08/18 04:42:29;;;;;;;1.95;1.67;;;17.10;99.90;;;;;;1910052;74;21146;-75
2022/08/18 04:45:28;;;;;;;4.08;2.17;;;17.20;99.90;;;;;;1906383;74;21089;-76
2022/08/18 04:48:20;;;;;;;3.02;1.85;;;17.20;99.90;;;;;;1925412;74;21051;-75
2022/08/18 04:51:14;;;;;;;2.33;1.90;;;17.30;99.90;;;;;;1916431;74;21503;-75
2022/08/18 04:54:11;;;;;;;1.87;1.77;;;17.30;99.90;;;;;;1906118;74;21068;-75
2022/08/18 04:57:12;;;;;;;3.12;1.50;;;17.30;99.90;;;;;;1910366;74;21093;-75
2022/08/18 05:00:08;;;;;;;2.05;1.22;;;17.30;99.90;;;;;;1905084;75;21042;-75
2022/08/18 05:02:59;;;;;;;2.60;1.40;;;17.40;99.90;;;;;;1918031;74;21099;-74
2022/08/18 05:05:50;;;;;;;1.35;1.07;;;17.40;99.90;;;;;;1909695;74;21091;-75
2022/08/18 05:08:56;;;;;;;3.35;1.32;;;17.30;99.90;;;;;;1914898;74;21105;-75
2022/08/18 05:11:52;;;;;;;2.60;1.87;;;17.40;99.90;;;;;;1910906;74;21483;-75
2022/08/18 05:14:45;;;;;;;3.83;2.25;;;17.40;99.90;;;;;;1918675;74;21132;-76
2022/08/18 05:17:39;;;;;;;5.83;2.00;;;17.40;99.90;;;;;;1911819;74;21071;-79
2022/08/18 05:20:39;;;;;;;4.28;2.00;;;17.40;99.90;;;;;;1905257;74;21185;-78
2022/08/18 05:23:32;;;;;;;2.22;2.02;;;17.50;99.90;;;;;;1905209;74;21095;-78
2022/08/18 05:29:02;;;;;;;3.15;2.60;;;17.60;99.90;;;;;;1944978;72;22165;-78
2022/08/18 05:31:57;;;;;;;5.28;2.40;;;17.70;99.90;;;;;;1936727;73;21157;-78
2022/08/18 05:34:50;;;;;;;3.98;2.37;;;17.70;99.90;;;;;;1943474;73;21166;-79
2022/08/18 05:38:00;;;;;;;4.40;2.00;;;17.80;99.90;;;;;;1938665;73;21045;-79
2022/08/18 05:41:06;;;;;;;1.90;1.80;;;17.80;99.90;;;;;;1937442;73;21097;-79
2022/08/18 05:43:59;;;;;;;4.28;2.15;;;17.70;99.90;;;;;;1923699;74;21109;-78
2022/08/18 05:46:53;;;;;;;3.02;2.35;;;17.60;99.90;;;;;;1929231;73;21181;-78
2022/08/18 05:49:47;;;;;;;4.00;2.35;;;17.70;99.90;;;;;;1930487;73;21084;-77
2022/08/18 05:52:42;;;;;;;4.03;2.20;;;17.80;99.90;;;;;;1928117;73;21075;-79
2022/08/18 05:58:48;;;;;;;2.40;1.90;;;17.70;99.90;;;;;;1931811;73;21166;-78
2022/08/18 06:01:44;;;;;;;2.65;2.20;;;17.70;99.90;;;;;;1927442;73;21042;-78
2022/08/18 06:04:43;;;;;;;3.65;2.47;;;17.80;99.90;;;;;;1933518;73;21183;-79
2022/08/18 06:07:38;;;;;;;4.72;2.27;;;17.80;99.90;;;;;;1938905;73;21191;-78
2022/08/18 06:10:30;;;;;;;2.30;2.10;;;17.80;99.90;;;;;;1931162;73;21042;-80
2022/08/18 06:13:35;;;;;;;4.33;3.67;;;17.80;99.90;;;;;;1933923;73;21622;-79
2022/08/18 06:16:41;;;;;;;4.75;4.10;;;17.80;99.90;;;;;;1935448;73;21132;-80
2022/08/18 06:19:41;;;;;;;7.72;5.22;;;18.00;99.90;;;;;;1928829;73;21180;-79
2022/08/18 06:25:16;;;;;;;6.55;5.85;;;18.30;99.90;;;;;;1941774;72;22289;-79
2022/08/18 06:28:13;;;;;;;8.33;6.17;;;18.30;99.90;;;;;;1902121;75;21078;-79
2022/08/18 06:31:07;;;;;;;5.25;4.58;;;18.40;99.90;;;;;;1901228;75;21119;-79
2022/08/18 06:36:48;;;;;;;3.17;2.67;;;18.50;99.90;;;;;;1940369;72;22677;-79
2022/08/18 06:39:44;;;;;;;4.00;3.20;;;18.60;99.90;;;;;;1881139;75;21067;-81
2022/08/18 06:42:36;;;;;;;8.63;2.50;;;18.60;99.90;;;;;;1890560;75;21090;-80
2022/08/18 06:45:33;;;;;;;3.50;2.17;;;18.80;99.90;;;;;;1886987;75;21112;-80
2022/08/18 06:48:29;;;;;;;3.47;2.50;;;18.80;99.90;;;;;;1897308;75;21169;-80
2022/08/18 06:51:22;;;;;;;3.98;2.33;;;18.80;99.90;;;;;;1898776;75;21094;-80
2022/08/18 06:54:30;;;;;;;3.00;2.30;;;18.80;99.90;;;;;;1909234;75;21494;-80
2022/08/18 06:57:33;;;;;;;3.85;2.27;;;18.90;99.90;;;;;;1896580;75;21109;-81
2022/08/18 07:00:28;;;;;;;5.22;2.20;;;18.90;99.90;;;;;;1891951;75;21451;-81
2022/08/18 07:03:24;;;;;;;5.47;4.45;;;18.90;99.90;;;;;;1908208;74;21160;-81
2022/08/18 07:06:29;;;;;;;3.10;2.80;;;19.00;99.90;;;;;;1893578;75;21684;-81
2022/08/18 07:09:23;;;;;;;4.75;2.60;;;19.00;99.90;;;;;;1900232;75;21156;-82
2022/08/18 07:15:04;;;;;;;4.03;3.05;;;18.90;99.90;;;;;;1936717;72;22206;-75
2022/08/18 07:17:59;;;;;;;2.95;2.65;;;19.00;99.90;;;;;;1923825;73;21089;-80
2022/08/18 07:20:53;;;;;;;4.15;2.60;;;19.10;99.90;;;;;;1938241;73;21030;-74
2022/08/18 07:24:02;;;;;;;2.70;2.30;;;19.20;99.90;;;;;;1914973;75;21058;-73
2022/08/18 07:29:44;;;;;;;7.60;2.60;;;19.60;99.90;;;;;;1941144;72;22195;-74
2022/08/18 07:32:40;;;;;;;6.70;3.30;;;19.70;99.90;;;;;;1905579;73;21098;-83
2022/08/18 07:35:37;;;;;;;4.00;2.70;;;19.60;99.90;;;;;;1897017;75;21167;-76
2022/08/18 07:38:31;;;;;;;4.35;2.83;;;19.70;99.90;;;;;;1899614;74;21175;-80
2022/08/18 07:41:28;;;;;;;3.52;3.22;;;19.70;99.90;;;;;;1892605;73;21087;-81
2022/08/18 07:44:23;;;;;;;3.83;2.42;;;19.70;99.90;;;;;;1904881;73;21051;-80
2022/08/18 07:47:19;;;;;;;3.67;2.58;;;19.80;99.90;;;;;;1899367;73;21080;-80
2022/08/18 07:50:24;;;;;;;4.50;2.65;;;19.80;99.90;;;;;;1889576;73;21417;-80
2022/08/18 07:53:21;;;;;;;16.15;8.90;;;19.80;99.90;;;;;;1901355;73;21059;-83
2022/08/18 07:56:17;;;;;;;2.77;2.50;;;19.80;99.90;;;;;;1905517;73;21164;-79
2022/08/18 08:01:52;;;;;;;3.70;2.62;;;19.60;99.90;;;;;;1960151;72;22184;-76
2022/08/18 08:04:46;;;;;;;5.35;2.98;;;19.50;99.90;;;;;;1906735;73;21506;-76
2022/08/18 08:07:49;;;;;;;3.22;2.40;;;19.50;99.90;;;;;;1898750;75;21067;-76
2022/08/18 08:10:58;;;;;;;2.75;2.30;;;19.60;99.90;;;;;;1917419;73;21047;-75
2022/08/18 08:14:00;;;;;;;4.90;2.37;;;19.60;99.90;;;;;;1911656;74;21085;-76
2022/08/18 08:16:55;;;;;;;2.92;2.05;;;19.70;99.90;;;;;;1896135;73;21119;-76
2022/08/18 08:19:55;;;;;;;3.30;2.15;;;19.70;99.90;;;;;;1927295;73;21058;-77
2022/08/18 08:22:55;;;;;;;2.17;1.90;;;19.70;99.90;;;;;;1915754;74;21490;-76
2022/08/18 08:28:49;;;;;;;2.37;2.12;;;19.80;99.90;;;;;;1947975;72;22141;-76
2022/08/18 08:31:48;;;;;;;1.85;1.55;;;19.80;99.90;;;;;;1910267;74;21062;-76
2022/08/18 08:34:42;;;;;;;2.55;1.52;;;19.90;99.90;;;;;;1884541;75;21162;-76
2022/08/18 08:37:38;;;;;;;2.58;2.02;;;20.00;99.90;;;;;;1889400;75;21144;-78
2022/08/18 08:40:36;;;;;;;3.52;1.72;;;20.10;99.90;;;;;;1892085;75;21097;-77
2022/08/18 08:48:53;;;;;;;1.80;1.57;;;20.10;99.90;;;;;;1933048;72;22139;-76
2022/08/18 08:54:33;;;;;;;3.50;1.90;;;20.40;99.90;;;;;;1942090;72;22915;-76
2022/08/18 08:57:31;;;;;;;1.70;1.60;;;20.40;99.90;;;;;;1899473;74;21124;-76
2022/08/18 09:00:23;;;;;;;2.55;1.90;;;20.50;99.90;;;;;;1913819;74;21099;-77
2022/08/18 09:06:08;;;;;;;2.47;1.70;;;20.70;99.90;;;;;;1946344;72;22237;-76
2022/08/18 09:09:10;;;;;;;2.02;1.65;;;20.80;99.90;;;;;;1891927;75;21062;-76
2022/08/18 09:12:44;;;;;;;2.90;2.00;;;21.00;99.90;;;;;;1902625;75;21195;-76
2022/08/18 09:15:46;;;;;;;2.72;1.70;;;21.20;99.90;;;;;;1869229;75;21204;-79
2022/08/18 09:18:48;;;;;;;1.95;1.72;;;21.30;99.90;;;;;;1906355;75;21157;-79
2022/08/18 09:21:46;;;;;;;3.12;1.77;;;21.50;99.90;;;;;;1886580;75;21096;-79
2022/08/18 09:24:47;;;;;;;2.47;1.60;;;21.60;99.90;;;;;;1905716;75;21070;-79
2022/08/18 09:27:45;;;;;;;3.75;1.62;;;21.70;99.90;;;;;;1907050;75;21131;-79
2022/08/18 09:30:49;;;;;;;1.77;1.27;;;21.80;99.90;;;;;;1906701;75;21176;-79
2022/08/18 09:37:06;;;;;;;2.90;2.00;;;22.00;99.90;;;;;;1952072;72;22123;-75
2022/08/18 09:43:14;;;;;;;4.03;2.02;;;22.10;99.90;;;;;;1930104;73;21074;-77
2022/08/18 09:46:09;;;;;;;2.37;1.80;;;22.20;99.90;;;;;;1917390;75;21450;-76
2022/08/18 09:49:34;;;;;;;5.12;2.40;;;22.30;99.90;;;;;;1917529;75;21110;-76
2022/08/18 09:52:52;;;;;;;5.53;2.65;;;22.40;99.90;;;;;;1917773;75;21059;-75
2022/08/18 09:55:57;;;;;;;2.77;2.15;;;22.40;99.90;;;;;;1917565;75;21110;-76
2022/08/18 09:59:00;;;;;;;3.90;2.40;;;22.60;99.90;;;;;;1917578;75;21117;-75
2022/08/18 10:01:52;;;;;;;4.20;2.42;;;22.70;99.90;;;;;;1917634;75;21593;-76
2022/08/18 10:04:49;;;;;;;3.50;2.10;;;22.80;99.90;;;;;;1922352;73;21190;-76
2022/08/18 10:07:47;;;;;;;3.08;2.10;;;23.10;99.90;;;;;;1928340;73;21060;-76
2022/08/18 10:10:45;;;;;;;1.70;1.60;;;23.30;99.90;;;;;;1917579;75;21130;-76
2022/08/18 10:13:42;;;;;;;3.15;1.82;;;23.60;99.90;;;;;;1917567;75;21071;-77
2022/08/18 10:16:39;;;;;;;3.37;2.02;;;23.80;99.90;;;;;;1917548;75;21087;-77
2022/08/18 10:19:36;;;;;;;2.20;1.73;;;24.10;99.90;;;;;;1917691;75;21173;-78
2022/08/18 10:22:42;;;;;;;3.47;1.98;;;24.20;99.90;;;;;;1917782;75;21212;-78
2022/08/18 10:25:38;;;;;;;4.12;2.50;;;24.30;99.90;;;;;;1917747;75;21113;-78
2022/08/18 10:28:55;;;;;;;3.00;2.08;;;24.40;99.90;;;;;;1917601;75;21499;-78
2022/08/18 10:32:19;;;;;;;2.20;2.00;;;24.40;99.90;;;;;;1917568;75;21099;-79
2022/08/18 10:35:54;;;;;;;2.47;2.12;;;24.10;99.90;;;;;;1939399;73;21059;-78
2022/08/18 10:38:52;;;;;;;3.10;2.07;;;24.30;99.90;;;;;;1877032;75;21147;-78
2022/08/18 10:41:57;;;;;;;2.58;1.82;;;24.50;99.90;;;;;;1926749;73;21805;-83
2022/08/18 10:47:30;;;;;;;1.98;1.72;;;24.50;99.90;;;;;;1938511;72;22240;-79
2022/08/18 10:53:08;;;;;;;2.47;2.00;;;24.40;99.90;;;;;;1914426;72;22159;-83
2022/08/18 10:56:03;;;;;;;1.95;1.72;;;24.70;99.90;;;;;;1907278;75;21162;-82
2022/08/18 10:59:10;;;;;;;2.65;2.22;;;24.70;99.90;;;;;;1913724;74;21058;-82
2022/08/18 11:04:57;;;;;;;3.17;2.63;;;25.00;99.90;;;;;;1909714;72;41257;-78
2022/08/18 11:07:52;;;;;;;2.77;1.65;;;24.90;99.90;;;;;;1889147;75;21168;-79
2022/08/18 11:10:49;;;;;;;3.00;2.08;;;24.90;99.90;;;;;;1891109;75;21142;-83
2022/08/18 11:16:42;;;;;;;1.75;1.50;;;24.90;99.90;;;;;;1921509;72;22116;-81
2022/08/18 11:19:39;;;;;;;5.30;2.20;;;24.80;99.90;;;;;;1909950;75;21498;-86
2022/08/18 11:22:35;;;;;;;3.92;1.98;;;24.90;99.90;;;;;;1910777;75;21106;-83
2022/08/18 11:28:25;;;;;;;3.83;1.90;;;25.10;99.90;;;;;;1959457;72;22180;-82
2022/08/18 11:31:19;;;;;;;4.53;2.30;;;25.20;99.90;;;;;;1934568;73;21119;-84
2022/08/18 11:37:12;;;;;;;3.22;1.90;;;25.30;99.90;;;;;;1933556;72;22197;-82
2022/08/18 11:40:08;;;;;;;3.22;1.85;;;25.30;99.90;;;;;;1940942;73;21176;-82
2022/08/18 11:43:09;;;;;;;2.02;1.87;;;25.30;99.90;;;;;;1936966;73;21055;-81
2022/08/18 11:46:12;;;;;;;3.33;1.72;;;25.30;99.90;;;;;;1939682;73;21155;-89
2022/08/18 11:49:18;;;;;;;2.13;1.83;;;25.50;99.90;;;;;;1924499;73;21614;-82
2022/08/18 11:52:22;;;;;;;3.42;2.52;;;25.60;99.90;;;;;;1938956;73;21347;-82
2022/08/18 11:55:20;;;;;;;;;;;25.50;99.90;;;;;;1940369;73;21059;-79
2022/08/18 11:58:36;;;;;;;3.00;2.00;;;25.50;99.90;;;;;;1925071;73;20121;-79
2022/08/18 12:01:58;;;;;;;2.80;2.08;;;25.70;99.90;;;;;;1892341;75;21152;-80
2022/08/18 12:07:35;;;;;;;2.27;1.80;;;25.90;99.90;;;;;;1938025;72;22140;-81
2022/08/18 12:10:31;;;;;;;2.98;2.12;;;25.90;99.90;;;;;;1933797;73;21178;-80
2022/08/18 12:13:26;;;;;;;2.65;2.00;;;25.90;99.90;;;;;;1931251;73;21090;-81
2022/08/18 12:16:32;;;;;;;2.00;1.80;;;25.90;99.90;;;;;;1939112;73;21150;-83
2022/08/18 12:19:29;;;;;;;2.33;2.12;;;25.70;99.90;;;;;;1936755;73;21054;-79
2022/08/18 12:25:04;;;;;;;1.87;1.75;;;25.20;99.90;;;;;;1959588;72;22201;-77
2022/08/18 12:27:56;;;;;;;4.35;2.05;;;24.90;99.90;;;;;;1917398;75;21096;-77
2022/08/18 12:30:47;;;;;;;3.33;2.40;;;24.70;99.90;;;;;;1917628;75;21497;-78
2022/08/18 12:33:40;;;;;;;2.10;1.87;;;24.50;99.90;;;;;;1916557;73;21179;-78
2022/08/18 12:36:33;;;;;;;2.15;1.95;;;24.50;99.90;;;;;;1928696;73;21531;-77
2022/08/18 12:39:24;;;;;;;2.50;2.30;;;24.40;99.90;;;;;;1920817;73;21090;-77
2022/08/18 12:42:16;;;;;;;2.20;2.00;;;24.20;99.90;;;;;;1920102;73;21565;-77
2022/08/18 12:47:49;;;;;;;5.40;2.10;;;24.40;99.90;;;;;;1936985;72;22205;-76
2022/08/18 12:50:43;;;;;;;2.77;2.15;;;24.40;99.90;;;;;;1905653;75;21048;-76
2022/08/18 12:53:36;;;;;;;2.42;2.02;;;24.70;99.90;;;;;;1898258;75;21086;-78
2022/08/18 12:56:31;;;;;;;2.80;1.92;;;24.90;99.90;;;;;;1855897;76;21078;-77
2022/08/18 12:59:22;;;;;;;2.20;2.00;;;25.10;99.90;;;;;;1884691;75;21652;-77
2022/08/18 13:02:15;;;;;;;3.15;1.80;;;25.20;99.90;;;;;;1884575;75;21510;-77
2022/08/18 13:07:47;;;;;;;3.12;2.22;;;25.20;99.90;;;;;;1932061;72;22590;-76
2022/08/18 13:13:20;;;;;;;2.47;2.27;;;25.30;99.90;;;;;;1936561;72;22745;-77
2022/08/18 13:16:17;;;;;;;2.15;1.87;;;25.20;99.90;;;;;;1888623;75;21078;-76
2022/08/18 13:19:20;;;;;;;2.30;2.10;;;25.00;99.90;;;;;;1890269;75;21168;-76
2022/08/18 13:22:11;;;;;;;2.37;2.17;;;24.80;99.90;;;;;;1906529;75;21070;-78
2022/08/18 13:27:58;;;;;;;2.25;2.00;;;24.70;99.90;;;;;;1956953;72;22235;-83
2022/08/18 13:30:50;;;;;;;2.10;1.98;;;24.80;99.90;;;;;;1925901;73;21149;-83
2022/08/18 13:33:49;;;;;;;2.30;2.10;;;24.90;99.90;;;;;;1939916;73;21102;-82
2022/08/18 13:36:46;;;;;;;2.60;2.40;;;24.90;99.90;;;;;;1940428;73;21161;-83
2022/08/18 13:39:38;;;;;;;2.20;2.00;;;24.90;99.90;;;;;;1905179;75;21052;-86
2022/08/18 13:42:47;;;;;;;3.12;2.33;;;25.00;99.90;;;;;;1929545;73;21203;-84
2022/08/18 13:45:49;;;;;;;2.47;2.27;;;24.90;99.90;;;;;;1930708;73;21091;-84
2022/08/18 13:48:43;;;;;;;2.55;2.35;;;24.80;99.90;;;;;;1911706;74;21184;-84
2022/08/18 13:51:36;;;;;;;2.40;2.20;;;24.80;99.90;;;;;;1921070;73;21099;-85
2022/08/18 13:54:32;;;;;;;2.30;2.08;;;24.70;99.90;;;;;;1920621;73;21708;-84
2022/08/18 13:57:25;;;;;;;2.37;2.10;;;24.70;99.90;;;;;;1922789;73;21051;-82
2022/08/18 14:03:01;;;;;;;5.90;2.70;;;24.70;99.90;;;;;;1939370;72;28015;-81
2022/08/18 14:06:01;;;;;;;2.40;2.20;;;24.40;99.90;;;;;;1930398;73;21159;-85
2022/08/18 14:09:05;;;;;;;2.98;2.22;;;24.50;99.90;;;;;;1917112;73;21064;-79
2022/08/18 14:11:59;;;;;;;3.02;2.00;;;24.60;99.90;;;;;;1927712;73;21051;-81
2022/08/18 14:17:38;;;;;;;3.02;2.20;;;24.40;99.90;;;;;;1936544;72;22164;-81
2022/08/18 14:26:49;;;;;;;2.72;2.15;;;24.50;99.90;;;;;;1929339;72;22269;-80
2022/08/18 14:29:45;;;;;;;3.70;2.27;;;24.40;99.90;;;;;;1911759;75;21048;-81
2022/08/18 14:35:23;;;;;;;3.05;2.30;;;24.20;99.90;;;;;;1942382;72;22149;-83
2022/08/18 14:38:16;;;;;;;2.37;1.98;;;24.40;99.90;;;;;;1938102;73;21122;-83
2022/08/18 14:43:51;;;;;;;2.20;2.00;;;24.40;99.90;;;;;;1944134;72;22215;-83
2022/08/18 14:46:46;;;;;;;2.22;2.02;;;24.40;99.90;;;;;;1917220;75;21133;-84
2022/08/18 14:52:17;;;;;;;5.70;2.67;;;24.20;99.90;;;;;;1947461;72;22125;-84
2022/08/18 14:55:10;;;;;;;2.60;2.22;;;24.30;99.90;;;;;;1915453;74;21091;-82
2022/08/18 14:58:02;;;;;;;3.10;2.15;;;24.20;99.90;;;;;;1918748;74;21027;-82
2022/08/18 15:00:55;;;;;;;3.15;2.65;;;24.20;99.90;;;;;;1922970;74;21546;-82
2022/08/18 15:03:46;;;;;;;2.50;2.30;;;24.20;99.90;;;;;;1919272;74;21054;-80
2022/08/18 15:09:23;;;;;;;2.50;2.30;;;24.20;99.90;;;;;;1941712;72;22225;-82
2022/08/18 15:12:25;;;;;;;2.22;2.02;;;24.30;99.90;;;;;;1908140;75;21084;-83
2022/08/18 15:18:04;;;;;;;2.20;2.00;;;24.40;99.90;;;;;;1941853;72;20260;-82
2022/08/18 15:27:19;;;;;;;3.02;2.30;;;24.50;99.90;;;;;;1922008;73;21150;-82
2022/08/18 15:32:52;;;;;;;2.55;2.20;;;24.50;99.90;;;;;;1950765;72;22237;-83
2022/08/18 15:35:52;;;;;;;4.62;2.37;;;24.50;99.90;;;;;;1938558;73;21242;-83
2022/08/18 15:41:38;;;;;;;3.15;2.10;;;24.40;99.90;;;;;;1932962;72;22177;-80
2022/08/18 15:44:31;;;;;;;4.80;2.17;;;24.50;99.90;;;;;;1889066;75;21147;-81
2022/08/18 15:47:23;;;;;;;2.62;2.42;;;24.40;99.90;;;;;;1885414;74;21080;-81
2022/08/18 15:50:16;;;;;;;2.05;1.80;;;24.50;99.90;;;;;;1887267;75;21098;-81
2022/08/18 15:53:10;;;;;;;2.40;2.12;;;24.50;99.90;;;;;;1894884;75;21106;-83
2022/08/18 15:56:03;;;;;;;3.25;2.10;;;24.50;99.90;;;;;;1889697;75;21280;-83
2022/08/18 15:58:56;;;;;;;5.30;2.12;;;24.30;99.90;;;;;;1886647;75;21153;-83
2022/08/18 16:04:29;;;;;;;2.85;2.52;;;24.20;99.90;;;;;;1931890;72;22114;-83
2022/08/18 16:07:21;;;;;;;2.35;2.15;;;24.20;99.90;;;;;;1899614;75;21086;-82
2022/08/18 16:13:03;;;;;;;2.90;2.50;;;24.10;99.90;;;;;;1915285;72;27906;-79
2022/08/18 16:15:53;;;;;;;3.45;2.00;;;24.20;99.90;;;;;;1894926;75;21079;-79
2022/08/18 16:18:45;;;;;;;2.33;2.10;;;24.20;99.90;;;;;;1898114;75;21054;-81
2022/08/18 16:21:38;;;;;;;3.35;2.55;;;24.10;99.90;;;;;;1895724;75;21110;-82
2022/08/18 16:24:30;;;;;;;2.70;2.37;;;24.10;99.90;;;;;;1903297;75;21459;-82
2022/08/18 16:27:22;;;;;;;5.17;2.77;;;24.10;99.90;;;;;;1899776;75;21168;-80
2022/08/18 16:32:53;;;;;;;3.05;2.40;;;24.20;99.90;;;;;;1944137;72;22251;-87
2022/08/18 16:35:46;;;;;;;2.47;2.05;;;24.10;99.90;;;;;;1901663;75;21135;-87
2022/08/18 16:38:37;;;;;;;2.37;2.17;;;24.00;99.90;;;;;;1893917;75;21135;-79
2022/08/18 16:41:30;;;;;;;4.12;2.37;;;23.90;99.90;;;;;;1895841;75;21198;-83
2022/08/18 16:44:23;;;;;;;4.25;1.95;;;23.90;99.90;;;;;;1896348;75;21136;-83
2022/08/18 16:50:24;;;;;;;2.10;1.98;;;23.70;99.90;;;;;;2060673;68;22176;-85
2022/08/18 16:55:55;;;;;;;2.20;2.00;;;23.60;99.90;;;;;;1946405;72;22141;-85
2022/08/18 17:08:11;;;;;;;2.67;1.92;;;23.10;99.90;;;;;;1937277;72;22127;-82
2022/08/18 17:11:03;;;;;;;3.50;2.10;;;23.20;99.90;;;;;;1907798;75;21185;-81
2022/08/18 17:13:57;;;;;;;2.20;2.02;;;23.10;99.90;;;;;;1889387;75;21134;-82
2022/08/18 17:19:32;;;;;;;2.25;1.98;;;23.10;99.90;;;;;;1947271;72;22134;-82
2022/08/18 17:22:24;;;;;;;4.53;2.15;;;23.00;99.90;;;;;;1902801;74;21184;-81
2022/08/18 17:27:57;;;;;;;2.20;1.92;;;22.90;99.90;;;;;;1941755;72;22265;-81
2022/08/18 17:30:51;;;;;;;2.95;2.00;;;23.00;99.90;;;;;;1939758;73;21091;-81
2022/08/18 17:33:45;;;;;;;3.37;2.08;;;22.70;99.90;;;;;;1892269;75;21127;-82
2022/08/18 17:36:40;;;;;;;3.30;2.30;;;22.40;99.90;;;;;;1947251;73;21158;-82
2022/08/18 17:39:39;;;;;;;4.03;2.30;;;22.10;99.90;;;;;;1947400;73;21050;-81
2022/08/18 17:42:32;;;;;;;2.20;2.00;;;21.90;99.90;;;;;;1948194;73;21038;-82
2022/08/18 17:45:24;;;;;;;3.27;2.00;;;22.00;99.90;;;;;;1941096;73;21539;-81
2022/08/18 17:48:19;;;;;;;3.05;1.82;;;22.00;99.90;;;;;;1941663;73;21114;-83
2022/08/18 17:51:33;;;;;;;2.40;2.20;;;22.10;99.90;;;;;;1949189;73;21509;-80
2022/08/18 17:54:28;;;;;;;2.30;2.10;;;22.10;99.90;;;;;;1945358;73;21125;-82